Time;durP1;ratioP1;P1;durP2;ratioP2;P2;SDS_P1;SDS_P2;PMS_P1;PMS_P2;Temp;Humidity;BMP_temperature;BMP_pressure;BME280_temperature;BME280_humidity;BME280_pressure;Samples;Min_cycle;Max_cycle;Signal;HPM_P1;HPM_P2
2021/03/07 00:01:06;;;;;;;;;17.33;12.33;;;;;-0.43;57.25;102351.84;4869736;29;8893;-79
2021/03/07 00:04:01;;;;;;;;;12.33;10.67;;;;;-0.45;58.09;102349.38;4856522;29;9672;-79
2021/03/07 00:06:57;;;;;;;;;15.33;15.33;;;;;-0.45;58.19;102349.38;4869201;29;8937;-79
2021/03/07 00:09:53;;;;;;;;;16.67;16.67;;;;;-0.71;58.41;102350.31;4866513;29;9614;-79
2021/03/07 00:12:49;;;;;;;;;12.33;12.33;;;;;-0.54;58.86;102352.53;4867462;29;8866;-79
2021/03/07 00:15:45;;;;;;;;;17.00;17.00;;;;;-0.65;59.33;102348.63;4869292;29;8911;-79
2021/03/07 00:18:41;;;;;;;;;14.67;13.67;;;;;-0.74;59.57;102352.63;4868982;29;8852;-79
2021/03/07 00:21:37;;;;;;;;;16.33;15.33;;;;;-0.76;59.29;102352.84;4868380;29;8901;-79
2021/03/07 00:24:33;;;;;;;;;16.67;16.67;;;;;-0.76;59.36;102341.97;4872737;29;8858;-79
2021/03/07 00:27:29;;;;;;;;;16.00;16.00;;;;;-0.71;59.08;102350.31;4860008;29;8856;-79
2021/03/07 00:30:24;;;;;;;;;15.67;14.33;;;;;-0.76;59.79;102346.59;4870948;29;8870;-79
2021/03/07 00:33:21;;;;;;;;;13.00;13.00;;;;;-0.78;60.22;102338.63;4872195;29;8905;-79
2021/03/07 00:36:17;;;;;;;;;8.33;8.33;;;;;-0.77;59.80;102344.88;4871526;29;8886;-79
2021/03/07 00:39:13;;;;;;;;;18.67;17.33;;;;;-0.67;59.60;102339.84;4871074;29;8863;-79
2021/03/07 00:42:08;;;;;;;;;12.33;12.00;;;;;-0.73;59.75;102344.25;4870257;29;8913;-79
2021/03/07 00:45:07;;;;;;;;;12.33;12.00;;;;;-0.74;59.25;102341.75;4872600;29;8955;-79
2021/03/07 00:48:02;;;;;;;;;10.00;10.00;;;;;-0.69;59.58;102345.50;4870383;29;8879;-79
2021/03/07 00:50:58;;;;;;;;;12.00;12.00;;;;;-0.82;59.85;102347.44;4871347;29;8943;-79
2021/03/07 00:53:54;;;;;;;;;15.67;15.67;;;;;-0.88;61.12;102333.66;4859086;29;8871;-79
2021/03/07 00:56:52;;;;;;;;;12.00;9.67;;;;;-0.85;60.98;102333.22;4863582;29;8866;-79
2021/03/07 00:59:48;;;;;;;;;16.67;15.00;;;;;-0.81;61.83;102325.47;4872096;29;8875;-79
2021/03/07 01:02:45;;;;;;;;;13.67;12.67;;;;;-0.85;61.48;102325.06;4871575;29;8854;-79
2021/03/07 01:05:42;;;;;;;;;18.00;17.00;;;;;-0.90;61.79;102327.59;4871402;29;8870;-78
2021/03/07 01:08:38;;;;;;;;;13.33;12.67;;;;;-1.14;60.95;102333.75;4870979;29;8877;-78
2021/03/07 01:11:34;;;;;;;;;14.33;14.33;;;;;-1.05;61.37;102320.75;4858945;29;9039;-78
2021/03/07 01:14:31;;;;;;;;;15.33;13.67;;;;;-1.24;61.01;102328.75;4870089;29;8879;-78
2021/03/07 01:17:26;;;;;;;;;9.00;9.00;;;;;-1.30;61.56;102320.63;4859946;29;8867;-79
2021/03/07 01:20:22;;;;;;;;;13.00;13.00;;;;;-1.25;61.47;102318.94;4859413;29;8906;-78
2021/03/07 01:23:21;;;;;;;;;13.67;12.67;;;;;-1.41;62.09;102311.25;4872632;29;8947;-78
2021/03/07 01:26:18;;;;;;;;;10.00;10.00;;;;;-1.41;62.66;102314.78;4870319;29;8997;-78
2021/03/07 01:29:14;;;;;;;;;14.67;14.33;;;;;-1.42;62.62;102315.84;4858939;29;9608;-78
2021/03/07 01:32:10;;;;;;;;;12.67;12.67;;;;;-1.43;62.55;102314.16;4871590;29;8848;-78
2021/03/07 01:35:06;;;;;;;;;20.67;19.33;;;;;-1.47;62.73;102314.78;4871183;29;9001;-78
2021/03/07 01:38:02;;;;;;;;;18.67;14.33;;;;;-1.56;62.98;102307.91;4869353;29;8833;-78
2021/03/07 01:40:59;;;;;;;;;12.00;12.00;;;;;-1.60;63.20;102306.69;4856420;29;8864;-78
2021/03/07 01:43:54;;;;;;;;;16.67;16.67;;;;;-1.76;63.44;102305.25;4870541;29;9571;-78
2021/03/07 01:46:50;;;;;;;;;13.00;13.00;;;;;-1.66;63.33;102312.94;4871892;29;8875;-78
2021/03/07 01:49:45;;;;;;;;;17.33;17.33;;;;;-1.70;63.38;102310.63;4870864;29;8847;-78
2021/03/07 01:52:41;;;;;;;;;21.67;20.33;;;;;-1.75;63.56;102313.16;4857554;29;8888;-78
2021/03/07 01:55:39;;;;;;;;;18.67;18.67;;;;;-1.69;63.13;102311.47;4857898;29;8880;-79
2021/03/07 01:58:36;;;;;;;;;16.67;16.00;;;;;-1.77;62.83;102325.25;4856759;29;8862;-79
2021/03/07 02:01:32;;;;;;;;;19.00;19.00;;;;;-1.70;62.59;102321.50;4870719;29;8979;-79
2021/03/07 02:04:28;;;;;;;;;18.00;18.00;;;;;-1.79;62.50;102327.34;4870845;29;8872;-79
2021/03/07 02:07:24;;;;;;;;;17.33;17.33;;;;;-1.81;62.67;102324.00;4870068;29;8946;-79
2021/03/07 02:10:27;;;;;;;;;15.67;15.33;;;;;-1.71;62.80;102319.00;4869150;29;8871;-79
2021/03/07 02:13:30;;;;;;;;;20.33;19.00;;;;;-1.75;62.50;102317.75;4870525;29;8850;-78
2021/03/07 02:16:26;;;;;;;;;22.33;19.33;;;;;-1.64;61.94;102311.69;4856898;29;8868;-78
2021/03/07 02:19:28;;;;;;;;;28.33;23.67;;;;;-1.77;62.10;102306.25;4869530;29;8855;-79
2021/03/07 02:22:33;;;;;;;;;22.67;21.33;;;;;-1.80;62.30;102312.13;4857051;29;8864;-79
2021/03/07 02:25:30;;;;;;;;;21.33;21.33;;;;;-1.82;62.68;102316.94;4870207;29;8862;-79
2021/03/07 02:28:27;;;;;;;;;24.00;24.00;;;;;-1.83;62.46;102315.25;4867987;29;8884;-79
2021/03/07 02:31:26;;;;;;;;;24.67;22.67;;;;;-1.88;62.41;102307.75;4870098;29;8881;-79
2021/03/07 02:34:35;;;;;;;;;22.33;22.33;;;;;-1.85;62.44;102307.31;4869176;29;8934;-79
2021/03/07 02:37:33;;;;;;;;;22.00;22.00;;;;;-1.82;62.52;102306.06;4858300;29;8874;-79
2021/03/07 02:40:31;;;;;;;;;24.00;23.33;;;;;-1.75;62.68;102309.63;4870505;29;8867;-79
2021/03/07 02:43:31;;;;;;;;;22.00;22.00;;;;;-1.87;63.04;102306.69;4869449;29;8883;-79
2021/03/07 02:46:31;;;;;;;;;27.00;25.00;;;;;-1.92;62.78;102309.19;4868538;29;8874;-78
2021/03/07 02:49:29;;;;;;;;;25.67;25.67;;;;;-1.81;63.03;102307.75;4870348;29;8903;-79
2021/03/07 02:52:25;;;;;;;;;22.67;22.67;;;;;-1.86;62.93;102310.25;4869184;29;8856;-79
2021/03/07 02:55:25;;;;;;;;;22.00;22.00;;;;;-1.87;62.75;102314.00;4867703;29;8867;-79
2021/03/07 02:58:22;;;;;;;;;13.33;11.67;;;;;-1.85;62.75;102314.63;4869212;29;8866;-79
2021/03/07 03:01:19;;;;;;;;;15.33;15.00;;;;;-1.96;62.95;102310.66;4869838;29;8860;-78
2021/03/07 03:04:15;;;;;;;;;22.00;22.00;;;;;-1.99;63.60;102314.63;4855597;29;8886;-77
2021/03/07 03:07:11;;;;;;;;;20.67;19.00;;;;;-2.01;63.19;102319.41;4869400;29;8866;-78
2021/03/07 03:10:08;;;;;;;;;19.33;19.33;;;;;-1.74;62.73;102314.00;4868795;29;8909;-78
2021/03/07 03:13:05;;;;;;;;;22.67;22.67;;;;;-1.81;62.80;102305.03;4869233;29;8852;-78
2021/03/07 03:16:03;;;;;;;;;18.33;18.00;;;;;-1.79;62.87;102319.22;4867752;29;8882;-78
2021/03/07 03:19:16;;;;;;;;;21.67;18.00;;;;;-1.89;63.19;102316.94;4859193;29;8851;-78
2021/03/07 03:22:22;;;;;;;;;24.00;21.67;;;;;-1.96;63.24;102305.25;4864439;29;8895;-78
2021/03/07 03:25:17;;;;;;;;;19.67;18.33;;;;;-1.93;63.58;102315.66;4869922;29;8894;-78
2021/03/07 03:28:13;;;;;;;;;23.33;23.33;;;;;-1.86;63.09;102312.94;4857370;29;8931;-78
2021/03/07 03:31:08;;;;;;;;;18.00;18.00;;;;;-1.89;62.82;102311.50;4856357;29;8875;-79
2021/03/07 03:34:06;;;;;;;;;34.67;26.33;;;;;-1.84;63.06;102309.00;4869194;29;8868;-79
2021/03/07 03:37:02;;;;;;;;;21.33;20.33;;;;;-1.93;62.90;102314.81;4869417;29;9644;-79
2021/03/07 03:39:58;;;;;;;;;18.00;18.00;;;;;-2.02;63.42;102311.50;4870329;29;8892;-79
2021/03/07 03:43:00;;;;;;;;;18.33;16.67;;;;;-2.05;63.53;102309.19;4866907;29;8876;-79
2021/03/07 03:46:00;;;;;;;;;21.33;18.67;;;;;-2.11;63.80;102300.00;4833785;29;8896;-79
2021/03/07 03:49:02;;;;;;;;;31.00;30.00;;;;;-2.00;63.87;102293.94;4830656;29;8871;-78
2021/03/07 03:52:09;;;;;;;;;21.67;19.67;;;;;-2.05;63.80;102296.47;4832834;29;8880;-79
2021/03/07 03:55:15;;;;;;;;;19.67;18.67;;;;;-2.00;63.29;102302.09;4831486;29;9546;-79
2021/03/07 03:58:12;;;;;;;;;19.33;17.33;;;;;-2.11;63.88;102302.72;4834401;29;8940;-79
2021/03/07 04:01:11;;;;;;;;;20.67;20.00;;;;;-2.02;64.07;102300.63;4833392;29;8975;-79
2021/03/07 04:04:07;;;;;;;;;17.33;17.33;;;;;-2.13;63.90;102304.81;4835995;29;8909;-79
2021/03/07 04:07:03;;;;;;;;;12.00;12.00;;;;;-2.06;63.88;102302.13;4837500;29;8871;-79
2021/03/07 04:10:00;;;;;;;;;14.33;14.33;;;;;-2.09;64.34;102305.22;4836755;29;8957;-78
2021/03/07 04:12:59;;;;;;;;;12.33;12.33;;;;;-2.10;64.13;102293.53;4832263;29;8870;-79
2021/03/07 04:15:56;;;;;;;;;13.00;13.00;;;;;-2.24;65.08;102298.09;4835890;29;8942;-79
2021/03/07 04:18:53;;;;;;;;;17.33;17.33;;;;;-2.13;64.95;102299.41;4835651;29;8867;-79
2021/03/07 04:21:49;;;;;;;;;18.00;18.00;;;;;-2.04;63.87;102298.16;4835713;29;8947;-79
2021/03/07 04:24:46;;;;;;;;;18.33;18.33;;;;;-2.25;64.31;102296.44;4835224;29;8854;-79
2021/03/07 04:27:43;;;;;;;;;21.00;19.00;;;;;-2.09;64.59;102294.38;4833186;29;8879;-79
2021/03/07 04:30:39;;;;;;;;;17.67;17.67;;;;;-2.28;65.42;102299.59;4836369;29;8900;-79
2021/03/07 04:33:36;;;;;;;;;13.67;13.00;;;;;-2.21;65.55;102293.34;4842041;29;8848;-79
2021/03/07 04:36:32;;;;;;;;;15.00;15.00;;;;;-2.19;65.47;102289.38;4834946;29;8852;-80
2021/03/07 04:39:28;;;;;;;;;16.67;16.67;;;;;-2.22;66.21;102281.66;4834362;29;10075;-79
2021/03/07 04:42:24;;;;;;;;;17.33;17.33;;;;;-2.30;66.15;102285.41;4834250;29;8990;-80
2021/03/07 04:45:20;;;;;;;;;15.33;13.67;;;;;-2.25;66.43;102274.75;4867009;29;8862;-80
2021/03/07 04:48:16;;;;;;;;;3.00;1.00;;;;;-2.04;65.63;102273.75;4871100;29;8898;-80
2021/03/07 04:51:11;;;;;;;;;19.67;18.00;;;;;-2.01;66.01;102267.88;4870950;29;8922;-80
2021/03/07 04:54:07;;;;;;;;;18.67;18.00;;;;;-2.24;65.92;102272.88;4870453;29;9683;-80
2021/03/07 04:57:05;;;;;;;;;18.33;15.67;;;;;-2.65;67.60;102268.44;4856317;29;8906;-81
2021/03/07 05:00:01;;;;;;;;;26.00;23.00;;;;;-2.69;67.55;102272.59;4869999;29;9635;-79
2021/03/07 05:02:56;;;;;;;;;18.00;17.33;;;;;-2.42;67.12;102278.09;4859565;29;8981;-77
2021/03/07 05:05:52;;;;;;;;;15.67;15.67;;;;;-2.32;66.91;102273.09;4863149;29;8885;-78
2021/03/07 05:08:48;;;;;;;;;13.67;13.67;;;;;-2.43;67.37;102274.53;4858381;29;8946;-78
2021/03/07 05:11:45;;;;;;;;;18.67;18.67;;;;;-2.56;68.04;102272.63;4871743;29;9015;-78
2021/03/07 05:14:40;;;;;;;;;22.67;21.67;;;;;-2.67;68.40;102281.38;4872029;29;8878;-79
2021/03/07 05:17:36;;;;;;;;;20.75;20.75;;;;;-2.31;67.98;102282.88;4869477;29;8897;-78
2021/03/07 05:20:33;;;;;;;;;21.33;18.00;;;;;-2.24;68.13;102286.44;4863092;29;8844;-78
2021/03/07 05:23:29;;;;;;;;;18.33;18.33;;;;;-2.19;68.63;102280.41;4873281;29;8864;-79
2021/03/07 05:26:24;;;;;;;;;26.33;23.33;;;;;-2.07;68.19;102282.31;4872529;29;10356;-78
2021/03/07 05:29:24;;;;;;;;;13.67;13.67;;;;;-2.34;68.24;102286.84;4874026;29;8893;-79
2021/03/07 05:32:19;;;;;;;;;18.25;17.50;;;;;-2.08;67.88;102285.19;4874348;29;8909;-78
2021/03/07 05:35:15;;;;;;;;;16.33;14.67;;;;;-2.06;67.26;102281.25;4870458;29;9058;-78
2021/03/07 05:38:11;;;;;;;;;15.00;13.00;;;;;-2.47;69.27;102278.69;4870839;29;8916;-78
2021/03/07 05:41:07;;;;;;;;;15.00;15.00;;;;;-1.92;68.47;102281.22;4861363;29;8895;-79
2021/03/07 05:44:03;;;;;;;;;21.67;20.67;;;;;-2.08;67.99;102271.63;4858445;29;8874;-79
2021/03/07 05:46:59;;;;;;;;;20.50;20.50;;;;;-1.86;67.96;102281.22;4870346;29;8876;-79
2021/03/07 05:49:55;;;;;;;;;24.67;24.33;;;;;-1.78;67.66;102278.31;4871769;29;8982;-79
2021/03/07 05:52:57;;;;;;;;;20.67;20.67;;;;;-1.49;66.90;102281.63;4873004;29;8879;-79
2021/03/07 05:55:53;;;;;;;;;19.00;17.33;;;;;-1.02;66.49;102272.28;4871614;29;8878;-79
2021/03/07 05:58:50;;;;;;;;;25.67;25.67;;;;;-1.01;65.07;102257.66;4859161;29;8885;-79
2021/03/07 06:01:45;;;;;;;;;18.00;18.00;;;;;-0.82;65.29;102265.94;4869563;29;8907;-79
2021/03/07 06:04:42;;;;;;;;;15.33;15.33;;;;;-0.79;64.60;102268.22;4860515;29;8863;-78
2021/03/07 06:07:42;;;;;;;;;22.00;21.67;;;;;-0.53;63.96;102276.22;4869315;29;8901;-79
2021/03/07 06:10:40;;;;;;;;;17.00;16.67;;;;;-1.12;65.33;102271.91;4869003;29;8892;-79
2021/03/07 06:13:45;;;;;;;;;17.33;17.33;;;;;-0.56;65.19;102263.88;4869784;29;9585;-79
2021/03/07 06:17:06;;;;;;;;;20.67;20.67;;;;;-0.08;62.83;102263.38;4869683;29;8942;-79
2021/03/07 06:20:05;;;;;;;;;19.67;19.33;;;;;0.19;62.20;102261.22;4860255;29;8893;-78
2021/03/07 06:23:02;;;;;;;;;24.33;22.67;;;;;0.48;61.05;102267.03;4867491;29;8949;-77
2021/03/07 06:26:09;;;;;;;;;24.67;24.67;;;;;0.66;60.72;102267.03;4858894;29;8918;-76
2021/03/07 06:29:07;;;;;;;;;24.00;22.00;;;;;0.81;60.43;102263.94;4871238;29;8984;-76
2021/03/07 06:32:16;;;;;;;;;20.67;20.67;;;;;0.86;60.41;102271.44;4868992;29;8865;-80
2021/03/07 06:34:46;;;;;;;;;21.00;21.00;;;;;1.00;60.42;102271.06;4870289;29;8872;-78
2021/03/07 06:38:02;;;;;;;;;20.00;19.00;;;;;1.34;62.47;102255.91;4857385;29;8878;-76
2021/03/07 06:40:51;;;;;;;;;21.67;20.67;;;;;1.10;60.89;102257.72;4870325;29;8887;-79
2021/03/07 06:43:35;;;;;;;;;27.33;27.00;;;;;1.22;60.72;102260.47;4854969;29;9625;-80
2021/03/07 06:46:33;;;;;;;;;28.67;27.67;;;;;1.10;61.11;102245.97;4870592;29;8901;-79
2021/03/07 06:49:29;;;;;;;;;25.00;22.00;;;;;1.17;59.92;102259.53;4869010;29;8860;-79
2021/03/07 06:52:25;;;;;;;;;31.33;31.00;;;;;1.29;60.74;102265.84;4868524;29;8872;-79
2021/03/07 06:55:41;;;;;;;;;34.33;29.67;;;;;1.75;59.96;102265.16;4870861;29;8879;-79
2021/03/07 06:58:37;;;;;;;;;19.00;18.33;;;;;1.84;59.25;102261.06;4871179;29;8862;-79
2021/03/07 07:01:39;;;;;;;;;30.00;24.67;;;;;2.03;57.73;102255.50;4858591;29;8863;-79
2021/03/07 07:04:40;;;;;;;;;24.33;24.33;;;;;2.44;62.65;102247.19;4858888;29;8872;-80
2021/03/07 07:07:47;;;;;;;;;27.00;25.67;;;;;2.33;56.32;102253.50;4855688;29;8886;-80
2021/03/07 07:10:53;;;;;;;;;26.00;26.00;;;;;2.01;57.29;102244.00;4868658;29;9013;-78
2021/03/07 07:13:51;;;;;;;;;29.00;29.00;;;;;1.93;57.43;102242.44;4861633;29;8934;-78
2021/03/07 07:16:47;;;;;;;;;25.67;25.33;;;;;1.99;58.03;102237.91;4868744;29;8917;-79
2021/03/07 07:19:44;;;;;;;;;9.67;9.67;;;;;2.07;60.37;102232.09;4855792;29;8871;-79
2021/03/07 07:22:41;;;;;;;;;24.00;24.00;;;;;2.26;57.17;102216.47;4854864;29;8959;-79
2021/03/07 07:25:39;;;;;;;;;26.33;26.33;;;;;2.83;64.91;102208.41;4857309;29;8880;-79
2021/03/07 07:28:36;;;;;;;;;18.33;16.67;;;;;3.10;60.46;102195.00;4855091;29;8879;-79
2021/03/07 07:31:38;;;;;;;;;29.33;27.00;;;;;2.95;55.58;102195.53;4868573;29;8930;-79
2021/03/07 07:34:44;;;;;;;;;24.00;24.00;;;;;2.90;56.09;102188.06;4856688;29;8874;-79
2021/03/07 07:37:48;;;;;;;;;28.00;25.33;;;;;2.92;59.56;102177.72;4867447;29;11716;-78
2021/03/07 07:40:44;;;;;;;;;20.67;20.67;;;;;2.95;60.87;102182.69;4869294;29;8959;-79
2021/03/07 07:43:50;;;;;;;;;30.00;29.00;;;;;3.22;58.11;102187.56;4869316;29;11832;-79
2021/03/07 07:47:01;;;;;;;;;28.00;27.00;;;;;3.86;56.13;102188.16;4867900;29;12596;-79
2021/03/07 07:49:57;;;;;;;;;35.33;34.33;;;;;3.61;55.29;102188.56;4866868;29;11749;-80
2021/03/07 07:52:56;;;;;;;;;28.75;26.50;;;;;4.03;57.74;102178.00;4855895;29;11711;-80
2021/03/07 07:55:56;;;;;;;;;25.75;25.75;;;;;4.21;56.50;102176.88;4869101;29;11723;-78
2021/03/07 07:58:53;;;;;;;;;27.75;27.75;;;;;4.09;55.02;102168.78;4868349;29;11821;-79
2021/03/07 08:01:55;;;;;;;;;21.25;21.00;;;;;3.38;54.88;102170.38;4867550;29;11734;-78
2021/03/07 08:04:52;;;;;;;;;20.00;20.00;;;;;3.79;54.87;102155.47;4868199;29;11779;-79
2021/03/07 08:08:08;;;;;;;;;18.50;16.25;;;;;3.75;55.29;102162.50;4856102;29;11693;-78
2021/03/07 08:11:07;;;;;;;;;18.50;16.25;;;;;3.78;55.86;102155.72;4857439;29;11697;-79
2021/03/07 08:14:02;;;;;;;;;22.50;19.75;;;;;3.95;54.88;102151.06;4868690;29;11719;-79
2021/03/07 08:16:58;;;;;;;;;13.50;13.50;;;;;3.98;56.07;102138.75;4868855;29;11751;-80
2021/03/07 08:19:53;;;;;;;;;10.50;10.50;;;;;3.80;55.81;102145.34;4868282;29;11829;-80
2021/03/07 08:22:57;;;;;;;;;15.75;14.50;;;;;3.78;55.66;102137.38;4856168;29;11655;-80
2021/03/07 08:25:53;;;;;;;;;15.50;15.50;;;;;4.67;59.80;102133.66;4860718;29;11708;-80
2021/03/07 08:28:48;;;;;;;;;23.25;22.25;;;;;4.86;61.84;102132.22;4868030;29;11721;-80
2021/03/07 08:31:44;;;;;;;;;25.50;24.25;;;;;4.82;55.01;102141.22;4869234;29;11687;-80
2021/03/07 08:34:44;;;;;;;;;16.00;16.00;;;;;4.49;53.73;102139.47;4869281;29;11696;-81
2021/03/07 08:37:41;;;;;;;;;21.75;20.50;;;;;4.59;54.06;102129.44;4869746;29;11695;-80
2021/03/07 08:40:39;;;;;;;;;21.00;19.25;;;;;5.28;57.85;102132.38;4869645;29;11794;-81
2021/03/07 08:43:40;;;;;;;;;27.00;25.25;;;;;5.33;64.90;102117.06;4862430;29;11693;-79
2021/03/07 08:46:39;;;;;;;;;17.50;17.50;;;;;5.11;51.46;102123.44;4872573;29;12485;-79
2021/03/07 08:49:35;;;;;;;;;16.00;16.00;;;;;5.22;50.44;102127.13;4869962;29;11726;-79
2021/03/07 08:52:37;;;;;;;;;20.50;20.50;;;;;5.35;50.96;102123.94;4873012;29;11819;-79
2021/03/07 08:55:32;;;;;;;;;20.75;20.75;;;;;5.16;50.24;102117.19;4861891;29;11749;-77
2021/03/07 08:58:01;;;;;;;;;11.00;11.00;;;;;4.81;50.59;102117.63;4859748;29;11811;-77
2021/03/07 09:01:00;;;;;;;;;18.25;18.25;;;;;4.30;51.53;102114.31;4874549;29;11795;-78
2021/03/07 09:03:30;;;;;;;;;25.75;22.25;;;;;4.14;51.93;102121.47;4856900;29;11766;-79
2021/03/07 09:06:32;;;;;;;;;14.00;14.00;;;;;3.62;52.16;102108.97;4858760;29;11720;-78
2021/03/07 09:09:27;;;;;;;;;18.25;14.75;;;;;4.01;51.58;102114.47;4873063;29;11689;-79
2021/03/07 09:12:23;;;;;;;;;16.75;16.75;;;;;3.98;51.04;102093.03;4870741;29;11763;-78
2021/03/07 09:15:09;;;;;;;;;11.75;11.75;;;;;3.99;49.41;102089.25;4872315;29;11869;-78
2021/03/07 09:17:52;;;;;;;;;13.50;12.75;;;;;4.68;48.23;102088.75;4879087;29;11703;-78
2021/03/07 09:20:55;;;;;;;;;15.00;15.00;;;;;5.01;47.21;102095.94;4874602;29;11724;-78
2021/03/07 09:23:51;;;;;;;;;17.25;14.50;;;;;5.20;46.46;102086.22;4870176;29;11791;-79
2021/03/07 09:26:47;;;;;;;;;13.75;12.50;;;;;5.34;46.28;102081.13;4870932;29;11676;-78
2021/03/07 09:30:17;;;;;;;;;12.00;11.75;;;;;4.64;48.48;102091.16;4872019;29;11721;-78
2021/03/07 09:33:13;;;;;;;;;12.00;12.00;;;;;5.03;47.99;102093.75;4860643;29;11704;-78
2021/03/07 09:35:44;;;;;;;;;16.25;13.75;;;;;5.11;47.78;102081.47;4839069;29;11906;-79
2021/03/07 09:38:15;;;;;;;;;13.25;11.00;;;;;5.20;44.47;102090.88;4855012;29;11806;-79
2021/03/07 09:40:44;;;;;;;;;9.75;9.00;;;;;4.33;45.79;102089.13;4872364;29;11723;-79
2021/03/07 09:43:15;;;;;;;;;8.25;8.25;;;;;4.77;47.19;102092.66;4870938;29;11761;-78
2021/03/07 09:46:16;;;;;;;;;8.50;8.50;;;;;4.35;47.41;102086.97;4870814;29;11682;-80
2021/03/07 09:49:06;;;;;;;;;11.75;11.75;;;;;3.95;48.16;102068.09;4861646;29;12394;-78
2021/03/07 09:52:02;;;;;;;;;1.50;1.50;;;;;4.05;47.61;102079.19;4873267;29;11804;-78
2021/03/07 09:54:30;;;;;;;;;15.25;13.00;;;;;4.45;48.69;102070.66;4851806;29;11718;-77
2021/03/07 09:57:26;;;;;;;;;9.25;9.25;;;;;5.46;45.96;102065.31;4871795;29;11714;-79
2021/03/07 10:00:25;;;;;;;;;8.75;8.00;;;;;5.20;44.26;102072.50;4869413;29;11662;-79
2021/03/07 10:03:23;;;;;;;;;9.00;8.50;;;;;4.74;45.63;102057.53;4869051;29;11671;-79
2021/03/07 10:06:18;;;;;;;;;11.75;10.00;;;;;4.82;47.18;102054.31;4871995;29;11680;-79
2021/03/07 10:09:08;;;;;;;;;16.00;15.00;;;;;5.22;46.13;102062.13;4871992;29;11674;-79
2021/03/07 10:11:55;;;;;;;;;4.50;4.50;;;;;5.11;44.53;102062.28;4870330;29;11696;-79
2021/03/07 10:14:39;;;;;;;;;11.00;11.00;;;;;5.37;46.44;102055.94;4880152;29;11731;-79
2021/03/07 10:17:07;;;;;;;;;8.00;8.00;;;;;5.80;43.47;102037.53;4871744;29;11718;-80
2021/03/07 10:20:05;;;;;;;;;7.75;7.75;;;;;5.79;42.15;102047.69;4856920;29;11663;-80
2021/03/07 10:23:01;;;;;;;;;4.00;4.00;;;;;5.91;40.93;102032.97;4869802;29;12474;-80
2021/03/07 10:25:59;;;;;;;;;5.00;5.00;;;;;6.15;39.85;102038.84;4869248;29;11077;-80
2021/03/07 10:28:55;;;;;;;;;6.00;6.00;;;;;6.58;38.21;102032.91;4867759;29;11664;-80
2021/03/07 10:32:18;;;;;;;;;4.50;4.50;;;;;7.16;38.52;102022.56;4863785;29;12372;-80
2021/03/07 10:35:14;;;;;;;;;2.00;2.00;;;;;6.81;39.23;102019.78;4868449;29;11635;-80
2021/03/07 10:38:19;;;;;;;;;4.50;4.50;;;;;6.54;38.14;102014.50;4858715;29;11761;-79
2021/03/07 10:41:30;;;;;;;;;5.00;5.00;;;;;6.28;38.35;102003.44;4858450;29;11677;-79
2021/03/07 10:44:26;;;;;;;;;4.50;4.50;;;;;6.79;38.71;101998.06;4868771;29;11654;-80
2021/03/07 10:46:54;;;;;;;;;5.00;5.00;;;;;6.79;39.29;101987.06;4871089;29;12544;-80
2021/03/07 10:49:50;;;;;;;;;5.25;5.25;;;;;6.51;38.96;101982.88;4870565;29;12599;-80
2021/03/07 10:52:46;;;;;;;;;6.00;6.00;;;;;6.67;39.36;101965.34;4863450;29;11653;-80
2021/03/07 10:55:14;;;;;;;;;6.75;6.25;;;;;6.28;39.12;101970.47;4870921;29;11644;-80
2021/03/07 10:58:12;;;;;;;;;7.00;7.00;;;;;6.79;40.36;101972.47;4867748;29;11671;-80
2021/03/07 11:01:12;;;;;;;;;4.00;4.00;;;;;6.35;38.82;101962.78;4869367;29;11676;-80
2021/03/07 11:04:08;;;;;;;;;5.00;5.00;;;;;6.31;39.72;101958.94;4869478;29;11668;-80
2021/03/07 11:07:04;;;;;;;;;5.00;5.00;;;;;6.15;38.89;101948.19;4854845;29;11709;-80
2021/03/07 11:10:00;;;;;;;;;6.00;6.00;;;;;7.10;39.94;101948.53;4856971;29;11623;-80
2021/03/07 11:12:56;;;;;;;;;4.50;4.50;;;;;7.32;38.21;101938.03;4870407;29;11695;-80
2021/03/07 11:15:23;;;;;;;;;5.75;5.75;;;;;7.17;37.91;101941.66;4869814;29;11775;-80
2021/03/07 11:18:19;;;;;;;;;5.00;5.00;;;;;7.44;39.26;101924.81;4868171;29;12335;-79
2021/03/07 11:20:56;;;;;;;;;2.50;2.50;;;;;6.91;38.15;101921.63;4868638;29;11844;-80
2021/03/07 11:23:23;;;;;;;;;5.50;5.50;;;;;7.48;39.12;101925.88;4868054;29;11676;-82
2021/03/07 11:26:03;;;;;;;;;6.00;6.00;;;;;7.56;37.29;101915.41;4865923;29;11670;-81
2021/03/07 11:28:59;;;;;;;;;6.00;6.00;;;;;7.20;38.35;101910.81;4860298;29;11839;-81
2021/03/07 11:31:47;;;;;;;;;6.00;6.00;;;;;7.85;38.03;101916.38;4871255;29;11656;-82
2021/03/07 11:34:42;;;;;;;;;7.50;7.50;;;;;8.11;38.49;101908.81;4866163;29;11669;-80
2021/03/07 11:37:39;;;;;;;;;5.50;5.50;;;;;8.28;37.56;101906.50;4868407;29;12407;-81
2021/03/07 11:40:35;;;;;;;;;7.00;7.00;;;;;8.50;37.15;101908.03;4869422;29;11599;-81
2021/03/07 11:43:32;;;;;;;;;6.00;6.00;;;;;8.66;36.40;101894.94;4866347;29;11692;-79
2021/03/07 11:46:27;;;;;;;;;7.00;7.00;;;;;8.50;35.83;101895.06;4866929;29;11677;-79
2021/03/07 11:49:23;;;;;;;;;6.00;6.00;;;;;8.11;36.73;101881.25;4845992;29;11554;-81
2021/03/07 11:52:19;;;;;;;;;6.75;6.75;;;;;7.59;37.26;101877.13;4869626;29;11716;-81
2021/03/07 11:55:16;;;;;;;;;6.00;6.00;;;;;7.90;36.18;101883.31;4858342;29;11692;-80
2021/03/07 11:57:58;;;;;;;;;6.25;6.25;;;;;8.17;36.92;101871.03;4848566;29;11611;-81
2021/03/07 12:00:26;;;;;;;;;6.75;6.75;;;;;8.26;36.13;101864.59;4839410;29;11623;-81
2021/03/07 12:02:55;;;;;;;;;7.00;7.00;;;;;8.50;35.54;101858.41;4874440;29;11617;-82
2021/03/07 12:06:00;;;;;;;;;6.50;6.50;;;;;7.45;36.65;101856.81;4871909;29;11573;-82
2021/03/07 12:08:29;;;;;;;;;6.25;6.00;;;;;7.81;35.93;101858.28;4868512;29;11594;-81
2021/03/07 12:11:25;;;;;;;;;9.75;9.75;;;;;8.34;37.30;101860.41;4871718;29;11605;-81
2021/03/07 12:13:54;;;;;;;;;5.25;5.25;;;;;8.38;35.83;101847.75;4851486;29;11659;-79
2021/03/07 12:16:45;;;;;;;;;7.25;7.25;;;;;8.22;36.19;101832.41;4869654;29;11807;-82
2021/03/07 12:19:48;;;;;;;;;6.75;6.75;;;;;8.10;36.23;101827.25;4860357;29;11645;-82
2021/03/07 12:22:15;;;;;;;;;9.00;9.00;;;;;8.23;36.59;101828.53;4872099;29;11682;-81
2021/03/07 12:25:12;;;;;;;;;7.50;7.50;;;;;8.61;36.47;101833.22;4872258;29;11638;-80
2021/03/07 12:28:09;;;;;;;;;6.75;6.75;;;;;7.72;36.59;101828.88;4873343;29;11620;-82
2021/03/07 12:30:43;;;;;;;;;8.25;8.25;;;;;8.24;36.65;101833.75;4864593;29;11649;-81
2021/03/07 12:33:29;;;;;;;;;12.75;12.75;;;;;8.44;36.20;101827.31;4876680;29;11662;-81
2021/03/07 12:35:59;;;;;;;;;6.25;6.25;;;;;8.77;36.08;101833.88;4856970;29;11829;-80
2021/03/07 12:38:26;;;;;;;;;8.50;8.50;;;;;9.04;35.53;101841.59;4872403;29;11572;-79
2021/03/07 12:40:55;;;;;;;;;6.50;6.50;;;;;7.99;37.06;101815.50;4864806;29;11623;-80
2021/03/07 12:43:38;;;;;;;;;5.00;5.00;;;;;8.36;35.73;101814.16;4860565;29;11610;-80
2021/03/07 12:46:06;;;;;;;;;6.00;6.00;;;;;8.25;35.61;101801.50;4878287;29;11615;-80
2021/03/07 12:48:33;;;;;;;;;7.25;7.25;;;;;8.44;36.05;101807.19;4873946;29;11599;-80
2021/03/07 12:51:03;;;;;;;;;7.00;7.00;;;;;8.31;35.82;101803.94;4874416;29;12355;-82
2021/03/07 12:53:30;;;;;;;;;7.00;6.00;;;;;8.62;36.17;101790.72;4856856;29;11645;-81
2021/03/07 12:55:58;;;;;;;;;6.75;6.75;;;;;8.67;36.51;101787.09;4875436;29;11620;-80
2021/03/07 12:58:31;;;;;;;;;6.00;6.00;;;;;8.71;34.92;101776.31;4872234;29;11743;-79
2021/03/07 13:01:27;;;;;;;;;7.00;7.00;;;;;9.30;34.68;101773.13;4862873;29;11585;-79
2021/03/07 13:03:54;;;;;;;;;6.00;6.00;;;;;9.06;34.61;101770.41;4871979;29;12332;-80
2021/03/07 13:06:22;;;;;;;;;5.75;5.75;;;;;8.75;35.41;101771.88;4873020;29;11665;-81
2021/03/07 13:09:03;;;;;;;;;7.00;7.00;;;;;8.97;35.16;101777.69;4874345;29;11608;-80
2021/03/07 13:11:31;;;;;;;;;5.00;5.00;;;;;9.11;36.06;101762.03;4873452;29;12119;-80
2021/03/07 13:13:59;;;;;;;;;7.50;7.50;;;;;9.35;35.99;101766.69;4873992;29;11620;-80
2021/03/07 13:16:26;;;;;;;;;8.75;8.75;;;;;9.33;35.77;101768.94;4855412;29;11602;-81
2021/03/07 13:18:57;;;;;;;;;9.25;9.25;;;;;8.85;37.02;101749.66;4874772;29;12299;-80
2021/03/07 13:21:53;;;;;;;;;9.00;9.00;;;;;9.18;35.72;101743.19;4869155;29;12345;-80
2021/03/07 13:24:20;;;;;;;;;8.75;8.75;;;;;8.84;36.64;101753.53;4875020;29;11602;-80